sensor_id;sensor_type;location;lat;lon;timestamp;P1;durP1;ratioP1;P2;durP2;ratioP2
5493;SDS011;2769;49.864;8.656;2023-06-10T00:02:21;10.70;;;9.70;;
5493;SDS011;2769;49.864;8.656;2023-06-10T00:04:49;12.20;;;11.10;;
5493;SDS011;2769;49.864;8.656;2023-06-10T00:07:17;11.53;;;10.50;;
5493;SDS011;2769;49.864;8.656;2023-06-10T00:09:47;10.90;;;9.83;;
5493;SDS011;2769;49.864;8.656;2023-06-10T00:12:15;10.23;;;9.33;;
5493;SDS011;2769;49.864;8.656;2023-06-10T00:14:43;12.93;;;11.47;;
5493;SDS011;2769;49.864;8.656;2023-06-10T00:17:11;11.10;;;10.10;;
5493;SDS011;2769;49.864;8.656;2023-06-10T00:19:41;10.63;;;9.73;;
5493;SDS011;2769;49.864;8.656;2023-06-10T00:22:10;11.00;;;9.90;;
5493;SDS011;2769;49.864;8.656;2023-06-10T00:24:38;12.30;;;11.13;;
5493;SDS011;2769;49.864;8.656;2023-06-10T00:27:08;12.43;;;11.23;;
5493;SDS011;2769;49.864;8.656;2023-06-10T00:29:36;12.33;;;11.03;;
5493;SDS011;2769;49.864;8.656;2023-06-10T00:32:05;11.90;;;10.60;;
5493;SDS011;2769;49.864;8.656;2023-06-10T00:34:34;11.00;;;9.90;;
5493;SDS011;2769;49.864;8.656;2023-06-10T00:37:02;15.13;;;10.70;;
5493;SDS011;2769;49.864;8.656;2023-06-10T00:39:30;11.93;;;10.30;;
5493;SDS011;2769;49.864;8.656;2023-06-10T00:41:58;11.47;;;10.30;;
5493;SDS011;2769;49.864;8.656;2023-06-10T00:44:28;12.03;;;10.83;;
5493;SDS011;2769;49.864;8.656;2023-06-10T00:46:56;12.53;;;10.17;;
5493;SDS011;2769;49.864;8.656;2023-06-10T00:49:24;13.23;;;10.50;;
5493;SDS011;2769;49.864;8.656;2023-06-10T00:51:52;11.10;;;10.00;;
5493;SDS011;2769;49.864;8.656;2023-06-10T00:54:20;11.20;;;9.93;;
5493;SDS011;2769;49.864;8.656;2023-06-10T00:56:48;10.80;;;9.70;;
5493;SDS011;2769;49.864;8.656;2023-06-10T00:59:17;11.90;;;10.60;;
5493;SDS011;2769;49.864;8.656;2023-06-10T01:01:46;13.70;;;9.37;;
5493;SDS011;2769;49.864;8.656;2023-06-10T01:07:12;10.97;;;9.87;;
5493;SDS011;2769;49.864;8.656;2023-06-10T01:09:45;11.13;;;10.03;;
5493;SDS011;2769;49.864;8.656;2023-06-10T01:12:21;11.10;;;9.97;;
5493;SDS011;2769;49.864;8.656;2023-06-10T01:14:56;12.70;;;10.70;;
5493;SDS011;2769;49.864;8.656;2023-06-10T01:17:27;11.63;;;10.43;;
5493;SDS011;2769;49.864;8.656;2023-06-10T01:19:57;10.40;;;9.50;;
5493;SDS011;2769;49.864;8.656;2023-06-10T01:22:29;10.97;;;9.23;;
5493;SDS011;2769;49.864;8.656;2023-06-10T01:24:59;13.70;;;9.80;;
5493;SDS011;2769;49.864;8.656;2023-06-10T01:27:29;10.90;;;9.90;;
5493;SDS011;2769;49.864;8.656;2023-06-10T01:29:58;11.03;;;10.03;;
5493;SDS011;2769;49.864;8.656;2023-06-10T01:32:33;11.53;;;10.17;;
5493;SDS011;2769;49.864;8.656;2023-06-10T01:35:05;12.37;;;9.97;;
5493;SDS011;2769;49.864;8.656;2023-06-10T01:37:37;12.43;;;10.50;;
5493;SDS011;2769;49.864;8.656;2023-06-10T01:40:06;14.53;;;10.60;;
5493;SDS011;2769;49.864;8.656;2023-06-10T01:42:35;11.37;;;10.27;;
5493;SDS011;2769;49.864;8.656;2023-06-10T01:45:03;11.03;;;9.93;;
5493;SDS011;2769;49.864;8.656;2023-06-10T01:47:32;14.40;;;10.73;;
5493;SDS011;2769;49.864;8.656;2023-06-10T01:50:00;10.40;;;9.17;;
5493;SDS011;2769;49.864;8.656;2023-06-10T01:52:28;10.50;;;9.50;;
5493;SDS011;2769;49.864;8.656;2023-06-10T01:54:58;12.43;;;10.70;;
5493;SDS011;2769;49.864;8.656;2023-06-10T01:57:25;11.83;;;10.07;;
5493;SDS011;2769;49.864;8.656;2023-06-10T01:59:53;11.80;;;9.70;;
5493;SDS011;2769;49.864;8.656;2023-06-10T02:02:21;10.57;;;9.57;;
5493;SDS011;2769;49.864;8.656;2023-06-10T02:04:50;11.40;;;10.20;;
5493;SDS011;2769;49.864;8.656;2023-06-10T02:07:19;11.33;;;9.80;;
5493;SDS011;2769;49.864;8.656;2023-06-10T02:09:47;11.17;;;9.77;;
5493;SDS011;2769;49.864;8.656;2023-06-10T02:12:17;10.20;;;9.23;;
5493;SDS011;2769;49.864;8.656;2023-06-10T02:14:45;11.23;;;10.13;;
5493;SDS011;2769;49.864;8.656;2023-06-10T02:17:13;10.70;;;9.70;;
5493;SDS011;2769;49.864;8.656;2023-06-10T02:19:41;10.37;;;9.47;;
5493;SDS011;2769;49.864;8.656;2023-06-10T02:22:10;10.67;;;9.70;;
5493;SDS011;2769;49.864;8.656;2023-06-10T02:24:38;10.30;;;9.30;;
5493;SDS011;2769;49.864;8.656;2023-06-10T02:27:06;10.97;;;9.87;;
5493;SDS011;2769;49.864;8.656;2023-06-10T02:29:35;10.63;;;9.50;;
5493;SDS011;2769;49.864;8.656;2023-06-10T02:32:04;10.50;;;9.50;;
5493;SDS011;2769;49.864;8.656;2023-06-10T02:34:36;24.33;;;9.93;;
5493;SDS011;2769;49.864;8.656;2023-06-10T02:37:06;10.80;;;9.73;;
5493;SDS011;2769;49.864;8.656;2023-06-10T02:39:34;12.20;;;9.80;;
5493;SDS011;2769;49.864;8.656;2023-06-10T02:42:06;15.13;;;10.50;;
5493;SDS011;2769;49.864;8.656;2023-06-10T02:44:36;11.83;;;9.97;;
5493;SDS011;2769;49.864;8.656;2023-06-10T02:47:05;10.47;;;9.37;;
5493;SDS011;2769;49.864;8.656;2023-06-10T02:49:35;15.33;;;9.97;;
5493;SDS011;2769;49.864;8.656;2023-06-10T02:52:03;10.30;;;9.40;;
5493;SDS011;2769;49.864;8.656;2023-06-10T02:54:33;12.83;;;10.07;;
5493;SDS011;2769;49.864;8.656;2023-06-10T02:57:02;10.50;;;9.50;;
5493;SDS011;2769;49.864;8.656;2023-06-10T02:59:31;11.30;;;10.10;;
5493;SDS011;2769;49.864;8.656;2023-06-10T03:02:01;15.90;;;9.73;;
5493;SDS011;2769;49.864;8.656;2023-06-10T03:04:33;10.13;;;9.13;;
5493;SDS011;2769;49.864;8.656;2023-06-10T03:07:08;13.53;;;9.50;;
5493;SDS011;2769;49.864;8.656;2023-06-10T03:09:37;11.13;;;10.00;;
5493;SDS011;2769;49.864;8.656;2023-06-10T03:12:09;11.00;;;9.60;;
5493;SDS011;2769;49.864;8.656;2023-06-10T03:14:43;19.83;;;9.87;;
5493;SDS011;2769;49.864;8.656;2023-06-10T03:17:13;11.60;;;9.53;;
5493;SDS011;2769;49.864;8.656;2023-06-10T03:19:42;14.10;;;9.40;;
5493;SDS011;2769;49.864;8.656;2023-06-10T03:22:10;11.23;;;10.03;;
5493;SDS011;2769;49.864;8.656;2023-06-10T03:25:06;12.30;;;9.70;;
5493;SDS011;2769;49.864;8.656;2023-06-10T03:27:42;16.03;;;9.70;;
5493;SDS011;2769;49.864;8.656;2023-06-10T03:30:12;10.60;;;9.50;;
5493;SDS011;2769;49.864;8.656;2023-06-10T03:32:43;10.40;;;9.50;;
5493;SDS011;2769;49.864;8.656;2023-06-10T03:35:14;10.87;;;9.67;;
5493;SDS011;2769;49.864;8.656;2023-06-10T03:37:44;11.10;;;10.00;;
5493;SDS011;2769;49.864;8.656;2023-06-10T03:40:12;11.37;;;10.20;;
5493;SDS011;2769;49.864;8.656;2023-06-10T03:42:43;11.37;;;10.27;;
5493;SDS011;2769;49.864;8.656;2023-06-10T03:45:13;12.30;;;10.00;;
5493;SDS011;2769;49.864;8.656;2023-06-10T03:47:41;13.83;;;10.70;;
5493;SDS011;2769;49.864;8.656;2023-06-10T03:50:14;11.37;;;10.30;;
5493;SDS011;2769;49.864;8.656;2023-06-10T03:52:44;11.30;;;10.20;;
5493;SDS011;2769;49.864;8.656;2023-06-10T03:55:14;12.17;;;10.97;;
5493;SDS011;2769;49.864;8.656;2023-06-10T03:57:44;13.93;;;10.57;;
5493;SDS011;2769;49.864;8.656;2023-06-10T04:00:13;11.93;;;10.70;;
5493;SDS011;2769;49.864;8.656;2023-06-10T04:02:41;11.27;;;10.07;;
5493;SDS011;2769;49.864;8.656;2023-06-10T04:05:20;11.47;;;10.33;;
5493;SDS011;2769;49.864;8.656;2023-06-10T04:07:51;10.80;;;9.80;;
5493;SDS011;2769;49.864;8.656;2023-06-10T04:10:19;11.77;;;10.67;;
5493;SDS011;2769;49.864;8.656;2023-06-10T04:12:46;11.00;;;9.97;;
5493;SDS011;2769;49.864;8.656;2023-06-10T04:15:17;10.90;;;9.90;;
5493;SDS011;2769;49.864;8.656;2023-06-10T04:17:46;11.50;;;10.30;;
5493;SDS011;2769;49.864;8.656;2023-06-10T04:20:17;11.20;;;10.10;;
5493;SDS011;2769;49.864;8.656;2023-06-10T04:22:48;10.90;;;9.80;;
5493;SDS011;2769;49.864;8.656;2023-06-10T04:25:16;11.30;;;10.20;;
5493;SDS011;2769;49.864;8.656;2023-06-10T04:27:44;11.70;;;10.40;;
5493;SDS011;2769;49.864;8.656;2023-06-10T04:30:13;10.83;;;9.80;;
5493;SDS011;2769;49.864;8.656;2023-06-10T04:32:42;11.60;;;10.20;;
5493;SDS011;2769;49.864;8.656;2023-06-10T04:35:15;10.50;;;9.40;;
5493;SDS011;2769;49.864;8.656;2023-06-10T04:37:44;10.77;;;9.67;;
5493;SDS011;2769;49.864;8.656;2023-06-10T04:40:14;10.83;;;9.80;;
5493;SDS011;2769;49.864;8.656;2023-06-10T04:42:43;10.33;;;9.33;;
5493;SDS011;2769;49.864;8.656;2023-06-10T04:45:12;9.83;;;8.83;;
5493;SDS011;2769;49.864;8.656;2023-06-10T04:47:41;10.10;;;8.97;;
5493;SDS011;2769;49.864;8.656;2023-06-10T04:50:10;10.37;;;9.33;;
5493;SDS011;2769;49.864;8.656;2023-06-10T04:52:38;9.80;;;8.90;;
5493;SDS011;2769;49.864;8.656;2023-06-10T04:55:09;10.13;;;9.13;;
5493;SDS011;2769;49.864;8.656;2023-06-10T04:57:39;10.70;;;9.70;;
5493;SDS011;2769;49.864;8.656;2023-06-10T05:00:07;10.00;;;9.07;;
5493;SDS011;2769;49.864;8.656;2023-06-10T05:02:35;17.13;;;9.27;;
5493;SDS011;2769;49.864;8.656;2023-06-10T05:05:03;11.33;;;8.60;;
5493;SDS011;2769;49.864;8.656;2023-06-10T05:07:33;10.73;;;9.00;;
5493;SDS011;2769;49.864;8.656;2023-06-10T05:10:01;10.07;;;8.73;;
5493;SDS011;2769;49.864;8.656;2023-06-10T05:12:29;9.23;;;8.33;;
5493;SDS011;2769;49.864;8.656;2023-06-10T05:14:58;9.63;;;8.63;;
5493;SDS011;2769;49.864;8.656;2023-06-10T05:17:28;9.87;;;8.87;;
5493;SDS011;2769;49.864;8.656;2023-06-10T05:19:56;9.50;;;8.60;;
5493;SDS011;2769;49.864;8.656;2023-06-10T05:22:23;9.50;;;8.70;;
5493;SDS011;2769;49.864;8.656;2023-06-10T05:24:52;11.87;;;8.70;;
5493;SDS011;2769;49.864;8.656;2023-06-10T05:27:19;9.10;;;8.30;;
5493;SDS011;2769;49.864;8.656;2023-06-10T05:29:51;9.93;;;8.23;;
5493;SDS011;2769;49.864;8.656;2023-06-10T05:32:20;10.90;;;9.17;;
5493;SDS011;2769;49.864;8.656;2023-06-10T05:34:48;9.47;;;8.57;;
5493;SDS011;2769;49.864;8.656;2023-06-10T05:37:16;9.10;;;8.27;;
5493;SDS011;2769;49.864;8.656;2023-06-10T05:39:44;9.27;;;8.37;;
5493;SDS011;2769;49.864;8.656;2023-06-10T05:42:12;9.67;;;8.77;;
5493;SDS011;2769;49.864;8.656;2023-06-10T05:44:40;9.90;;;8.23;;
5493;SDS011;2769;49.864;8.656;2023-06-10T05:47:07;15.37;;;8.30;;
5493;SDS011;2769;49.864;8.656;2023-06-10T05:49:37;10.00;;;8.97;;
5493;SDS011;2769;49.864;8.656;2023-06-10T05:52:05;9.60;;;8.27;;
5493;SDS011;2769;49.864;8.656;2023-06-10T05:54:33;11.83;;;8.33;;
5493;SDS011;2769;49.864;8.656;2023-06-10T05:57:01;9.47;;;8.30;;
5493;SDS011;2769;49.864;8.656;2023-06-10T05:59:32;8.80;;;8.00;;
5493;SDS011;2769;49.864;8.656;2023-06-10T06:02:00;10.67;;;8.27;;
5493;SDS011;2769;49.864;8.656;2023-06-10T06:04:28;9.20;;;8.40;;
5493;SDS011;2769;49.864;8.656;2023-06-10T06:06:57;9.77;;;8.07;;
5493;SDS011;2769;49.864;8.656;2023-06-10T06:09:25;10.23;;;8.47;;
5493;SDS011;2769;49.864;8.656;2023-06-10T06:11:53;11.53;;;8.77;;
5493;SDS011;2769;49.864;8.656;2023-06-10T06:14:21;9.33;;;7.93;;
5493;SDS011;2769;49.864;8.656;2023-06-10T06:16:49;9.20;;;8.33;;
5493;SDS011;2769;49.864;8.656;2023-06-10T06:19:17;8.90;;;8.10;;
5493;SDS011;2769;49.864;8.656;2023-06-10T06:21:45;8.53;;;7.73;;
5493;SDS011;2769;49.864;8.656;2023-06-10T06:24:14;10.93;;;7.93;;
5493;SDS011;2769;49.864;8.656;2023-06-10T06:26:42;8.37;;;7.60;;
5493;SDS011;2769;49.864;8.656;2023-06-10T06:29:11;8.70;;;7.80;;
5493;SDS011;2769;49.864;8.656;2023-06-10T06:31:39;9.40;;;7.40;;
5493;SDS011;2769;49.864;8.656;2023-06-10T06:34:07;7.57;;;6.97;;
5493;SDS011;2769;49.864;8.656;2023-06-10T06:36:36;13.20;;;7.97;;
5493;SDS011;2769;49.864;8.656;2023-06-10T06:39:03;8.77;;;7.73;;
5493;SDS011;2769;49.864;8.656;2023-06-10T06:41:33;9.17;;;8.00;;
5493;SDS011;2769;49.864;8.656;2023-06-10T06:44:01;9.03;;;7.80;;
5493;SDS011;2769;49.864;8.656;2023-06-10T06:46:32;7.80;;;7.10;;
5493;SDS011;2769;49.864;8.656;2023-06-10T06:48:59;11.73;;;8.00;;
5493;SDS011;2769;49.864;8.656;2023-06-10T06:51:27;10.30;;;7.53;;
5493;SDS011;2769;49.864;8.656;2023-06-10T06:53:56;8.33;;;7.53;;
5493;SDS011;2769;49.864;8.656;2023-06-10T06:56:25;9.70;;;8.20;;
5493;SDS011;2769;49.864;8.656;2023-06-10T06:58:56;8.13;;;7.30;;
5493;SDS011;2769;49.864;8.656;2023-06-10T07:01:24;8.43;;;7.27;;
5493;SDS011;2769;49.864;8.656;2023-06-10T07:03:52;8.53;;;7.40;;
5493;SDS011;2769;49.864;8.656;2023-06-10T07:06:20;8.50;;;6.60;;
5493;SDS011;2769;49.864;8.656;2023-06-10T07:08:48;8.10;;;7.37;;
5493;SDS011;2769;49.864;8.656;2023-06-10T07:11:17;7.57;;;6.80;;
5493;SDS011;2769;49.864;8.656;2023-06-10T07:13:48;10.63;;;6.97;;
5493;SDS011;2769;49.864;8.656;2023-06-10T07:16:17;8.53;;;6.87;;
5493;SDS011;2769;49.864;8.656;2023-06-10T07:18:47;8.07;;;7.33;;
5493;SDS011;2769;49.864;8.656;2023-06-10T07:21:15;12.60;;;7.40;;
5493;SDS011;2769;49.864;8.656;2023-06-10T07:23:43;7.97;;;7.10;;
5493;SDS011;2769;49.864;8.656;2023-06-10T07:26:11;6.80;;;6.20;;
5493;SDS011;2769;49.864;8.656;2023-06-10T07:28:40;12.67;;;7.47;;
5493;SDS011;2769;49.864;8.656;2023-06-10T07:31:08;7.80;;;7.00;;
5493;SDS011;2769;49.864;8.656;2023-06-10T07:33:37;8.17;;;7.13;;
5493;SDS011;2769;49.864;8.656;2023-06-10T07:36:06;8.43;;;7.37;;
5493;SDS011;2769;49.864;8.656;2023-06-10T07:38:34;7.73;;;6.93;;
5493;SDS011;2769;49.864;8.656;2023-06-10T07:41:05;7.40;;;6.73;;
5493;SDS011;2769;49.864;8.656;2023-06-10T07:43:33;7.50;;;6.90;;
5493;SDS011;2769;49.864;8.656;2023-06-10T07:46:01;7.40;;;6.50;;
5493;SDS011;2769;49.864;8.656;2023-06-10T07:48:29;7.50;;;6.73;;
5493;SDS011;2769;49.864;8.656;2023-06-10T07:50:58;7.23;;;6.63;;
5493;SDS011;2769;49.864;8.656;2023-06-10T07:53:26;9.23;;;6.57;;
5493;SDS011;2769;49.864;8.656;2023-06-10T07:55:54;6.90;;;6.30;;
5493;SDS011;2769;49.864;8.656;2023-06-10T07:58:22;8.90;;;6.03;;
5493;SDS011;2769;49.864;8.656;2023-06-10T08:00:50;7.60;;;7.00;;
5493;SDS011;2769;49.864;8.656;2023-06-10T08:03:18;7.27;;;6.57;;
5493;SDS011;2769;49.864;8.656;2023-06-10T08:05:46;7.63;;;5.87;;
5493;SDS011;2769;49.864;8.656;2023-06-10T08:08:16;6.83;;;6.13;;
5493;SDS011;2769;49.864;8.656;2023-06-10T08:10:44;7.10;;;6.40;;
5493;SDS011;2769;49.864;8.656;2023-06-10T08:13:11;7.23;;;6.10;;
5493;SDS011;2769;49.864;8.656;2023-06-10T08:15:39;8.50;;;6.57;;
5493;SDS011;2769;49.864;8.656;2023-06-10T08:18:07;7.17;;;6.63;;
5493;SDS011;2769;49.864;8.656;2023-06-10T08:20:35;6.67;;;6.17;;
5493;SDS011;2769;49.864;8.656;2023-06-10T08:23:04;8.57;;;6.50;;
5493;SDS011;2769;49.864;8.656;2023-06-10T08:25:33;7.70;;;5.97;;
5493;SDS011;2769;49.864;8.656;2023-06-10T08:28:01;7.70;;;6.97;;
5493;SDS011;2769;49.864;8.656;2023-06-10T08:30:29;6.77;;;6.27;;
5493;SDS011;2769;49.864;8.656;2023-06-10T08:32:57;6.53;;;6.03;;
5493;SDS011;2769;49.864;8.656;2023-06-10T08:35:28;5.97;;;5.57;;
5493;SDS011;2769;49.864;8.656;2023-06-10T08:37:56;7.30;;;6.10;;
5493;SDS011;2769;49.864;8.656;2023-06-10T08:40:24;6.30;;;5.63;;
5493;SDS011;2769;49.864;8.656;2023-06-10T08:42:58;13.07;;;6.60;;
5493;SDS011;2769;49.864;8.656;2023-06-10T08:45:29;6.23;;;5.83;;
5493;SDS011;2769;49.864;8.656;2023-06-10T08:47:58;7.93;;;6.00;;
5493;SDS011;2769;49.864;8.656;2023-06-10T08:50:28;8.23;;;5.97;;
5493;SDS011;2769;49.864;8.656;2023-06-10T08:52:57;9.17;;;6.13;;
5493;SDS011;2769;49.864;8.656;2023-06-10T08:55:27;7.20;;;6.27;;
5493;SDS011;2769;49.864;8.656;2023-06-10T08:58:00;9.13;;;5.97;;
5493;SDS011;2769;49.864;8.656;2023-06-10T09:00:29;8.70;;;5.57;;
5493;SDS011;2769;49.864;8.656;2023-06-10T09:02:58;6.07;;;5.67;;
5493;SDS011;2769;49.864;8.656;2023-06-10T09:05:31;6.63;;;5.73;;
5493;SDS011;2769;49.864;8.656;2023-06-10T09:08:00;6.40;;;5.90;;
5493;SDS011;2769;49.864;8.656;2023-06-10T09:10:29;6.93;;;5.80;;
5493;SDS011;2769;49.864;8.656;2023-06-10T09:12:57;5.87;;;5.20;;
5493;SDS011;2769;49.864;8.656;2023-06-10T09:15:26;5.10;;;4.70;;
5493;SDS011;2769;49.864;8.656;2023-06-10T09:17:54;5.93;;;5.30;;
5493;SDS011;2769;49.864;8.656;2023-06-10T09:20:22;8.20;;;5.20;;
5493;SDS011;2769;49.864;8.656;2023-06-10T09:22:51;8.70;;;5.63;;
5493;SDS011;2769;49.864;8.656;2023-06-10T09:25:19;5.70;;;5.20;;
5493;SDS011;2769;49.864;8.656;2023-06-10T09:28:02;6.30;;;5.63;;
5493;SDS011;2769;49.864;8.656;2023-06-10T09:30:32;5.67;;;5.17;;
5493;SDS011;2769;49.864;8.656;2023-06-10T09:33:01;5.10;;;4.80;;
5493;SDS011;2769;49.864;8.656;2023-06-10T09:35:33;5.13;;;4.53;;
5493;SDS011;2769;49.864;8.656;2023-06-10T09:38:01;6.53;;;5.10;;
5493;SDS011;2769;49.864;8.656;2023-06-10T09:40:29;16.97;;;5.37;;
5493;SDS011;2769;49.864;8.656;2023-06-10T09:42:57;5.53;;;4.80;;
5493;SDS011;2769;49.864;8.656;2023-06-10T09:45:28;5.90;;;4.80;;
5493;SDS011;2769;49.864;8.656;2023-06-10T09:47:58;5.27;;;4.83;;
5493;SDS011;2769;49.864;8.656;2023-06-10T09:50:27;5.10;;;4.60;;
5493;SDS011;2769;49.864;8.656;2023-06-10T09:52:55;5.00;;;4.50;;
5493;SDS011;2769;49.864;8.656;2023-06-10T09:55:23;5.03;;;4.63;;
5493;SDS011;2769;49.864;8.656;2023-06-10T09:57:53;8.10;;;4.53;;
5493;SDS011;2769;49.864;8.656;2023-06-10T10:00:22;4.57;;;4.27;;
5493;SDS011;2769;49.864;8.656;2023-06-10T10:02:53;6.40;;;4.77;;
5493;SDS011;2769;49.864;8.656;2023-06-10T10:05:23;4.53;;;4.13;;
5493;SDS011;2769;49.864;8.656;2023-06-10T10:07:52;6.60;;;4.35;;
5493;SDS011;2769;49.864;8.656;2023-06-10T10:10:20;5.40;;;4.32;;
5493;SDS011;2769;49.864;8.656;2023-06-10T10:12:50;4.40;;;4.00;;
5493;SDS011;2769;49.864;8.656;2023-06-10T10:15:20;4.70;;;4.40;;
5493;SDS011;2769;49.864;8.656;2023-06-10T10:17:51;4.50;;;4.20;;
5493;SDS011;2769;49.864;8.656;2023-06-10T10:20:22;4.75;;;4.45;;
5493;SDS011;2769;49.864;8.656;2023-06-10T10:22:55;4.88;;;4.47;;
5493;SDS011;2769;49.864;8.656;2023-06-10T10:25:27;10.33;;;4.60;;
5493;SDS011;2769;49.864;8.656;2023-06-10T10:27:57;5.40;;;4.60;;
5493;SDS011;2769;49.864;8.656;2023-06-10T10:30:28;5.57;;;5.17;;
5493;SDS011;2769;49.864;8.656;2023-06-10T10:32:57;5.00;;;4.70;;
5493;SDS011;2769;49.864;8.656;2023-06-10T10:35:28;4.80;;;4.50;;
5493;SDS011;2769;49.864;8.656;2023-06-10T10:37:56;4.53;;;4.13;;
5493;SDS011;2769;49.864;8.656;2023-06-10T10:40:24;5.30;;;4.50;;
5493;SDS011;2769;49.864;8.656;2023-06-10T10:42:53;5.20;;;4.43;;
5493;SDS011;2769;49.864;8.656;2023-06-10T10:45:21;4.40;;;4.20;;
5493;SDS011;2769;49.864;8.656;2023-06-10T10:47:52;4.03;;;3.80;;
5493;SDS011;2769;49.864;8.656;2023-06-10T10:50:22;5.57;;;3.90;;
5493;SDS011;2769;49.864;8.656;2023-06-10T10:52:55;7.22;;;3.63;;
5493;SDS011;2769;49.864;8.656;2023-06-10T10:55:24;4.00;;;3.80;;
5493;SDS011;2769;49.864;8.656;2023-06-10T10:57:56;3.85;;;3.45;;
5493;SDS011;2769;49.864;8.656;2023-06-10T11:00:28;4.40;;;3.20;;
5493;SDS011;2769;49.864;8.656;2023-06-10T11:03:04;3.00;;;2.90;;
5493;SDS011;2769;49.864;8.656;2023-06-10T11:05:38;3.22;;;2.92;;
5493;SDS011;2769;49.864;8.656;2023-06-10T11:08:08;3.92;;;3.42;;
5493;SDS011;2769;49.864;8.656;2023-06-10T11:10:37;3.53;;;3.22;;
5493;SDS011;2769;49.864;8.656;2023-06-10T11:13:07;3.30;;;2.93;;
5493;SDS011;2769;49.864;8.656;2023-06-10T11:15:38;3.42;;;3.00;;
5493;SDS011;2769;49.864;8.656;2023-06-10T11:18:07;3.40;;;3.10;;
5493;SDS011;2769;49.864;8.656;2023-06-10T11:23:39;2.83;;;2.72;;
5493;SDS011;2769;49.864;8.656;2023-06-10T11:26:15;6.57;;;6.10;;
5493;SDS011;2769;49.864;8.656;2023-06-10T11:29:03;4.50;;;4.10;;
5493;SDS011;2769;49.864;8.656;2023-06-10T11:31:38;2.90;;;2.80;;
5493;SDS011;2769;49.864;8.656;2023-06-10T11:34:09;2.70;;;2.58;;
5493;SDS011;2769;49.864;8.656;2023-06-10T11:36:38;3.25;;;3.13;;
5493;SDS011;2769;49.864;8.656;2023-06-10T11:39:13;2.63;;;2.53;;
5493;SDS011;2769;49.864;8.656;2023-06-10T11:41:41;3.03;;;2.83;;
5493;SDS011;2769;49.864;8.656;2023-06-10T11:44:10;4.40;;;2.88;;
5493;SDS011;2769;49.864;8.656;2023-06-10T11:46:44;2.70;;;2.60;;
5493;SDS011;2769;49.864;8.656;2023-06-10T11:49:12;2.88;;;2.45;;
5493;SDS011;2769;49.864;8.656;2023-06-10T11:51:40;3.35;;;2.60;;
5493;SDS011;2769;49.864;8.656;2023-06-10T11:54:17;2.50;;;2.40;;
5493;SDS011;2769;49.864;8.656;2023-06-10T11:56:45;2.65;;;2.55;;
5493;SDS011;2769;49.864;8.656;2023-06-10T11:59:13;2.45;;;2.35;;
5493;SDS011;2769;49.864;8.656;2023-06-10T12:01:42;2.50;;;2.40;;
5493;SDS011;2769;49.864;8.656;2023-06-10T12:04:11;4.20;;;2.47;;
5493;SDS011;2769;49.864;8.656;2023-06-10T12:06:43;3.00;;;2.80;;
5493;SDS011;2769;49.864;8.656;2023-06-10T12:09:14;2.80;;;2.60;;
5493;SDS011;2769;49.864;8.656;2023-06-10T12:11:52;2.85;;;2.75;;
5493;SDS011;2769;49.864;8.656;2023-06-10T12:17:19;6.00;;;2.60;;
5493;SDS011;2769;49.864;8.656;2023-06-10T12:19:48;3.30;;;2.65;;
5493;SDS011;2769;49.864;8.656;2023-06-10T12:22:17;2.90;;;2.70;;
5493;SDS011;2769;49.864;8.656;2023-06-10T12:24:46;2.90;;;2.70;;
5493;SDS011;2769;49.864;8.656;2023-06-10T12:27:28;4.45;;;2.90;;
5493;SDS011;2769;49.864;8.656;2023-06-10T12:29:57;3.15;;;2.95;;
5493;SDS011;2769;49.864;8.656;2023-06-10T12:32:39;3.38;;;3.20;;
5493;SDS011;2769;49.864;8.656;2023-06-10T12:35:09;4.13;;;3.20;;
5493;SDS011;2769;49.864;8.656;2023-06-10T12:37:39;3.30;;;3.20;;
5493;SDS011;2769;49.864;8.656;2023-06-10T12:40:09;2.92;;;2.83;;
5493;SDS011;2769;49.864;8.656;2023-06-10T12:42:39;3.03;;;2.83;;
5493;SDS011;2769;49.864;8.656;2023-06-10T12:45:08;2.80;;;2.70;;
5493;SDS011;2769;49.864;8.656;2023-06-10T12:47:39;4.55;;;2.78;;
5493;SDS011;2769;49.864;8.656;2023-06-10T12:50:08;2.80;;;2.70;;
5493;SDS011;2769;49.864;8.656;2023-06-10T12:52:38;2.47;;;2.38;;
5493;SDS011;2769;49.864;8.656;2023-06-10T12:55:07;2.65;;;2.33;;
5493;SDS011;2769;49.864;8.656;2023-06-10T12:57:36;2.53;;;2.42;;
5493;SDS011;2769;49.864;8.656;2023-06-10T13:00:06;2.53;;;2.42;;
5493;SDS011;2769;49.864;8.656;2023-06-10T13:02:36;2.63;;;2.53;;
5493;SDS011;2769;49.864;8.656;2023-06-10T13:05:04;2.90;;;2.80;;
5493;SDS011;2769;49.864;8.656;2023-06-10T13:07:32;2.80;;;2.70;;
5493;SDS011;2769;49.864;8.656;2023-06-10T13:10:00;2.50;;;2.40;;
5493;SDS011;2769;49.864;8.656;2023-06-10T13:12:28;2.40;;;2.30;;
5493;SDS011;2769;49.864;8.656;2023-06-10T13:15:14;2.80;;;2.60;;
5493;SDS011;2769;49.864;8.656;2023-06-10T13:17:42;2.85;;;2.67;;
5493;SDS011;2769;49.864;8.656;2023-06-10T13:20:10;2.90;;;2.80;;
5493;SDS011;2769;49.864;8.656;2023-06-10T13:22:39;2.92;;;2.60;;
5493;SDS011;2769;49.864;8.656;2023-06-10T13:25:07;2.22;;;2.22;;
5493;SDS011;2769;49.864;8.656;2023-06-10T13:27:37;2.83;;;2.65;;
5493;SDS011;2769;49.864;8.656;2023-06-10T13:30:05;7.72;;;3.03;;
5493;SDS011;2769;49.864;8.656;2023-06-10T13:32:36;3.10;;;2.80;;
5493;SDS011;2769;49.864;8.656;2023-06-10T13:35:05;2.58;;;2.30;;
5493;SDS011;2769;49.864;8.656;2023-06-10T13:37:34;3.97;;;2.85;;
5493;SDS011;2769;49.864;8.656;2023-06-10T13:40:03;3.35;;;3.10;;
5493;SDS011;2769;49.864;8.656;2023-06-10T13:42:32;3.22;;;3.03;;
5493;SDS011;2769;49.864;8.656;2023-06-10T13:45:02;6.60;;;2.90;;
5493;SDS011;2769;49.864;8.656;2023-06-10T13:47:31;3.45;;;3.20;;
5493;SDS011;2769;49.864;8.656;2023-06-10T13:50:00;3.20;;;3.00;;
5493;SDS011;2769;49.864;8.656;2023-06-10T13:52:28;3.58;;;3.28;;
5493;SDS011;2769;49.864;8.656;2023-06-10T13:54:56;3.60;;;3.30;;
5493;SDS011;2769;49.864;8.656;2023-06-10T13:57:24;3.40;;;3.25;;
5493;SDS011;2769;49.864;8.656;2023-06-10T13:59:52;3.50;;;3.33;;
5493;SDS011;2769;49.864;8.656;2023-06-10T14:02:22;4.20;;;3.90;;
5493;SDS011;2769;49.864;8.656;2023-06-10T14:04:50;3.97;;;3.77;;
5493;SDS011;2769;49.864;8.656;2023-06-10T14:07:20;5.07;;;3.90;;
5493;SDS011;2769;49.864;8.656;2023-06-10T14:09:47;4.30;;;3.90;;
5493;SDS011;2769;49.864;8.656;2023-06-10T14:12:15;4.77;;;4.00;;
5493;SDS011;2769;49.864;8.656;2023-06-10T14:14:43;4.20;;;4.00;;
5493;SDS011;2769;49.864;8.656;2023-06-10T14:17:11;4.23;;;4.03;;
5493;SDS011;2769;49.864;8.656;2023-06-10T14:19:39;4.43;;;4.03;;
5493;SDS011;2769;49.864;8.656;2023-06-10T14:22:07;5.17;;;4.20;;
5493;SDS011;2769;49.864;8.656;2023-06-10T14:24:36;4.63;;;4.20;;
5493;SDS011;2769;49.864;8.656;2023-06-10T14:27:05;4.70;;;4.40;;
5493;SDS011;2769;49.864;8.656;2023-06-10T14:29:34;5.10;;;4.57;;
5493;SDS011;2769;49.864;8.656;2023-06-10T14:32:02;4.57;;;4.17;;
5493;SDS011;2769;49.864;8.656;2023-06-10T14:34:34;4.93;;;4.47;;
5493;SDS011;2769;49.864;8.656;2023-06-10T14:37:02;4.77;;;4.47;;
5493;SDS011;2769;49.864;8.656;2023-06-10T14:39:33;5.63;;;4.60;;
5493;SDS011;2769;49.864;8.656;2023-06-10T14:42:03;4.40;;;4.10;;
5493;SDS011;2769;49.864;8.656;2023-06-10T14:44:32;4.50;;;4.10;;
5493;SDS011;2769;49.864;8.656;2023-06-10T14:47:00;4.33;;;4.03;;
5493;SDS011;2769;49.864;8.656;2023-06-10T14:49:28;5.10;;;4.33;;
5493;SDS011;2769;49.864;8.656;2023-06-10T14:51:56;4.70;;;4.30;;
5493;SDS011;2769;49.864;8.656;2023-06-10T14:54:23;4.37;;;4.07;;
5493;SDS011;2769;49.864;8.656;2023-06-10T14:56:51;4.40;;;4.10;;
5493;SDS011;2769;49.864;8.656;2023-06-10T14:59:21;5.43;;;4.33;;
5493;SDS011;2769;49.864;8.656;2023-06-10T15:01:49;5.20;;;4.60;;
5493;SDS011;2769;49.864;8.656;2023-06-10T15:04:17;3.90;;;3.60;;
5493;SDS011;2769;49.864;8.656;2023-06-10T15:06:49;4.70;;;4.40;;
5493;SDS011;2769;49.864;8.656;2023-06-10T15:09:17;4.20;;;3.80;;
5493;SDS011;2769;49.864;8.656;2023-06-10T15:11:45;5.10;;;4.60;;
5493;SDS011;2769;49.864;8.656;2023-06-10T15:14:13;4.57;;;4.27;;
5493;SDS011;2769;49.864;8.656;2023-06-10T15:16:42;4.07;;;3.77;;
5493;SDS011;2769;49.864;8.656;2023-06-10T15:19:10;4.40;;;4.10;;
5493;SDS011;2769;49.864;8.656;2023-06-10T15:21:38;4.40;;;4.20;;
5493;SDS011;2769;49.864;8.656;2023-06-10T15:24:06;4.70;;;4.30;;
5493;SDS011;2769;49.864;8.656;2023-06-10T15:26:35;3.60;;;3.50;;
5493;SDS011;2769;49.864;8.656;2023-06-10T15:29:02;4.10;;;3.87;;
5493;SDS011;2769;49.864;8.656;2023-06-10T15:31:31;5.80;;;4.20;;